createdAt,value
2022-09-12T00:01:54.432Z,0.75
2022-09-12T00:04:58.317Z,0.85
2022-09-12T00:08:01.271Z,0.63
2022-09-12T00:11:06.013Z,0.90
2022-09-12T00:14:09.690Z,0.77
2022-09-12T00:17:12.439Z,1.52
2022-09-12T00:20:16.164Z,0.90
2022-09-12T00:23:18.581Z,0.80
2022-09-12T00:26:21.690Z,0.80
2022-09-12T00:29:24.083Z,1.00
2022-09-12T00:32:26.751Z,0.90
2022-09-12T00:35:30.676Z,1.08
2022-09-12T00:38:33.491Z,0.85
2022-09-12T00:41:37.099Z,0.90
2022-09-12T00:44:47.767Z,0.85
2022-09-12T00:47:50.360Z,0.75
2022-09-12T00:51:45.036Z,1.13
2022-09-12T00:54:50.512Z,1.20
2022-09-12T00:58:21.389Z,0.88
2022-09-12T01:01:24.137Z,0.52
2022-09-12T01:04:28.896Z,0.93
2022-09-12T01:07:31.393Z,0.77
2022-09-12T01:10:36.399Z,0.90
2022-09-12T01:13:38.802Z,0.60
2022-09-12T01:16:41.304Z,0.82
2022-09-12T01:19:52.991Z,0.95
2022-09-12T01:23:42.199Z,0.68
2022-09-12T01:27:04.993Z,0.90
2022-09-12T01:30:25.239Z,0.93
2022-09-12T01:33:35.763Z,0.98
2022-09-12T01:36:42.825Z,0.90
2022-09-12T01:39:48.777Z,0.70
2022-09-12T01:42:54.569Z,0.80
2022-09-12T01:45:59.244Z,0.80
2022-09-12T01:49:08.347Z,0.80
2022-09-12T01:52:13.373Z,0.70
2022-09-12T01:56:19.671Z,1.00
2022-09-12T02:05:11.699Z,0.60
2022-09-12T02:12:34.275Z,0.70
2022-09-12T02:16:08.030Z,0.68
2022-09-12T02:19:41.765Z,0.88
2022-09-12T02:23:08.213Z,0.80
2022-09-12T02:30:16.288Z,0.70
2022-09-12T02:34:01.738Z,0.80
2022-09-12T02:41:29.805Z,0.88
2022-09-12T02:49:00.554Z,0.70
2022-09-12T02:52:14.586Z,0.70
2022-09-12T03:03:37.479Z,0.73
2022-09-12T03:06:57.614Z,0.80
2022-09-12T03:10:18.123Z,0.73
2022-09-12T03:13:32.241Z,0.80
2022-09-12T03:17:16.509Z,0.80
2022-09-12T03:20:35.809Z,0.90
2022-09-12T03:24:17.030Z,0.68
2022-09-12T03:28:03.492Z,0.75
2022-09-12T03:31:39.509Z,0.57
2022-09-12T03:35:17.926Z,0.73
2022-09-12T03:38:27.437Z,0.60
2022-09-12T03:41:41.769Z,0.60
2022-09-12T03:44:52.856Z,0.85
2022-09-12T03:48:16.936Z,0.73
2022-09-12T03:51:38.666Z,0.80
2022-09-12T03:54:54.285Z,0.70
2022-09-12T04:01:29.488Z,0.68
2022-09-12T04:04:38.004Z,0.68
2022-09-12T04:07:55.038Z,0.75
2022-09-12T04:11:08.135Z,0.52
2022-09-12T04:14:10.792Z,0.90
2022-09-12T04:17:14.016Z,0.77
2022-09-12T04:20:19.561Z,0.80
2022-09-12T04:23:26.073Z,0.90
2022-09-12T04:26:29.757Z,0.60
2022-09-12T04:29:32.490Z,0.77
2022-09-12T04:32:35.061Z,0.80
2022-09-12T04:35:37.708Z,0.63
2022-09-12T04:38:43.428Z,0.80
2022-09-12T04:41:46.503Z,0.75
2022-09-12T04:44:49.451Z,0.80
2022-09-12T04:47:52.578Z,0.60
2022-09-12T04:51:28.009Z,1.00
2022-09-12T04:54:43.272Z,0.80
2022-09-12T04:58:01.433Z,0.80
2022-09-12T05:01:09.092Z,0.70
2022-09-12T05:04:12.866Z,0.70
2022-09-12T05:07:15.607Z,0.80
2022-09-12T05:10:22.088Z,0.55
2022-09-12T05:13:31.118Z,0.70
2022-09-12T05:16:48.538Z,0.70
2022-09-12T05:20:00.756Z,0.90
2022-09-12T05:27:22.071Z,0.70
2022-09-12T05:30:24.701Z,0.80
2022-09-12T05:33:27.282Z,0.60
2022-09-12T05:36:30.775Z,0.80
2022-09-12T05:39:35.213Z,1.00
2022-09-12T05:42:39.831Z,0.60
2022-09-12T05:45:43.365Z,0.60
2022-09-12T05:48:47.899Z,1.02
2022-09-12T05:51:52.477Z,0.80
2022-09-12T05:54:57.614Z,1.10
2022-09-12T05:58:01.817Z,1.58
2022-09-12T06:01:05.470Z,1.00
2022-09-12T06:04:08.891Z,1.05
2022-09-12T06:07:11.330Z,1.17
2022-09-12T06:10:17.816Z,1.45
2022-09-12T06:13:23.968Z,1.20
2022-09-12T06:16:27.715Z,1.55
2022-09-12T06:19:33.537Z,1.10
2022-09-12T06:22:36.005Z,1.40
2022-09-12T06:25:39.336Z,1.70
2022-09-12T06:28:45.758Z,1.75
2022-09-12T06:31:48.440Z,2.10
2022-09-12T06:34:54.092Z,2.00
2022-09-12T06:37:56.548Z,2.17
2022-09-12T06:41:03.330Z,2.28
2022-09-12T06:44:09.978Z,2.35
2022-09-12T06:47:13.019Z,2.13
2022-09-12T06:50:15.466Z,2.97
2022-09-12T06:53:18.049Z,2.63
2022-09-12T06:56:21.214Z,2.55
2022-09-12T06:59:25.068Z,2.78
2022-09-12T07:02:41.704Z,2.50
2022-09-12T07:05:44.593Z,2.67
2022-09-12T07:08:47.965Z,3.05
2022-09-12T07:11:51.747Z,2.60
2022-09-12T07:14:58.559Z,2.55
2022-09-12T07:18:01.277Z,2.70
2022-09-12T07:21:08.875Z,2.55
2022-09-12T07:24:11.536Z,2.33
2022-09-12T07:27:14.575Z,2.45
2022-09-12T07:30:23.180Z,2.08
2022-09-12T07:33:28.594Z,2.15
2022-09-12T07:36:34.381Z,2.25
2022-09-12T07:39:37.712Z,2.40
2022-09-12T07:42:40.761Z,1.70
2022-09-12T07:45:52.526Z,1.75
2022-09-12T07:48:55.632Z,1.75
2022-09-12T07:52:00.302Z,1.77
2022-09-12T07:55:05.194Z,1.98
2022-09-12T07:58:07.791Z,2.40
2022-09-12T08:01:14.057Z,1.60
2022-09-12T08:04:17.321Z,2.03
2022-09-12T08:07:20.144Z,1.63
2022-09-12T08:10:24.659Z,1.48
2022-09-12T08:13:27.987Z,1.70
2022-09-12T08:16:37.698Z,1.60
2022-09-12T08:19:43.588Z,1.63
2022-09-12T08:22:46.042Z,1.42
2022-09-12T08:25:48.531Z,1.90
2022-09-12T08:28:51.170Z,1.70
2022-09-12T08:31:57.326Z,1.92
2022-09-12T08:34:59.943Z,1.60
2022-09-12T08:38:05.873Z,1.88
2022-09-12T08:41:15.136Z,1.90
2022-09-12T08:44:30.450Z,1.67
2022-09-12T08:47:37.327Z,2.13
2022-09-12T08:50:49.267Z,2.05
2022-09-12T08:53:56.347Z,2.20
2022-09-12T08:57:02.190Z,2.20
2022-09-12T09:00:08.419Z,2.42
2022-09-12T09:03:38.124Z,2.55
2022-09-12T09:06:56.643Z,2.08
2022-09-12T09:10:11.148Z,2.55
2022-09-12T09:13:39.348Z,2.03
2022-09-12T09:16:43.460Z,2.50
2022-09-12T09:19:53.607Z,2.28
2022-09-12T09:22:57.918Z,1.80
2022-09-12T09:26:07.057Z,1.70
2022-09-12T09:29:15.205Z,1.65
2022-09-12T09:32:20.075Z,1.92
2022-09-12T09:35:27.835Z,2.03
2022-09-12T09:38:36.272Z,3.60
2022-09-12T09:41:50.907Z,2.50
2022-09-12T09:44:55.628Z,2.28
2022-09-12T09:47:59.251Z,3.55
2022-09-12T09:51:03.061Z,1.77
2022-09-12T09:54:12.181Z,2.20
2022-09-12T09:57:35.437Z,1.95
2022-09-12T10:00:44.828Z,1.33
2022-09-12T10:03:51.219Z,1.40
2022-09-12T10:06:54.690Z,1.90
2022-09-12T10:10:09.518Z,1.67
2022-09-12T10:13:25.919Z,1.38
2022-09-12T10:16:33.010Z,1.85
2022-09-12T10:19:36.413Z,1.50
2022-09-12T10:22:39.356Z,1.50
2022-09-12T10:25:41.976Z,2.00
2022-09-12T10:28:46.393Z,1.90
2022-09-12T10:31:55.482Z,1.58
2022-09-12T10:35:03.399Z,1.75
2022-09-12T10:38:07.622Z,1.63
2022-09-12T10:41:12.442Z,1.88
2022-09-12T10:44:19.387Z,1.75
2022-09-12T10:47:33.697Z,1.88
2022-09-12T10:50:38.001Z,1.55
2022-09-12T10:53:41.447Z,1.65
2022-09-12T10:56:58.530Z,1.60
2022-09-12T11:00:08.649Z,1.52
2022-09-12T11:03:17.056Z,1.50
2022-09-12T11:06:24.297Z,1.33
2022-09-12T11:09:32.486Z,1.63
2022-09-12T11:12:40.568Z,1.20
2022-09-12T11:15:52.035Z,1.17
2022-09-12T11:19:06.402Z,1.30
2022-09-12T11:22:28.734Z,1.13
2022-09-12T11:25:35.821Z,1.60
2022-09-12T11:28:47.091Z,1.25
2022-09-12T11:31:58.515Z,1.35
2022-09-12T11:35:08.604Z,1.08
2022-09-12T11:38:19.887Z,1.25
2022-09-12T11:41:26.121Z,0.80
2022-09-12T11:44:30.520Z,1.08
2022-09-12T11:47:35.315Z,1.25
2022-09-12T11:50:44.812Z,1.38
2022-09-12T11:53:52.152Z,1.58
2022-09-12T11:57:19.531Z,1.25
2022-09-12T12:04:40.495Z,1.30
2022-09-12T12:07:53.983Z,1.40
2022-09-12T12:11:05.282Z,1.50
2022-09-12T12:14:14.639Z,1.25
2022-09-12T12:17:19.740Z,1.52
2022-09-12T12:20:24.039Z,1.35
2022-09-12T12:23:30.025Z,1.10
2022-09-12T12:26:43.436Z,1.30
2022-09-12T12:29:46.204Z,1.10
2022-09-12T12:32:53.467Z,1.58
2022-09-12T12:36:08.422Z,0.85
2022-09-12T12:39:42.750Z,1.10
2022-09-12T12:43:02.486Z,1.02
2022-09-12T12:46:17.039Z,0.88
2022-09-12T12:49:23.521Z,0.98
2022-09-12T12:52:28.027Z,0.93
2022-09-12T12:55:34.021Z,1.08
2022-09-12T12:58:38.787Z,1.00
2022-09-12T13:01:55.007Z,0.88
2022-09-12T13:04:58.633Z,0.90
2022-09-12T13:12:10.046Z,0.93
2022-09-12T13:15:51.052Z,1.33
2022-09-12T13:19:00.672Z,1.00
2022-09-12T13:22:04.724Z,1.10
2022-09-12T13:25:21.287Z,0.80
2022-09-12T13:28:26.737Z,0.80
2022-09-12T13:31:30.442Z,0.63
2022-09-12T13:34:36.515Z,0.85
2022-09-12T13:37:48.601Z,0.80
2022-09-12T13:41:02.115Z,0.80
2022-09-12T13:44:15.439Z,0.70
2022-09-12T13:47:24.355Z,0.70
2022-09-12T13:50:29.086Z,0.80
2022-09-12T13:53:34.537Z,0.70
2022-09-12T13:56:47.690Z,0.82
2022-09-12T13:59:55.087Z,0.90
2022-09-12T14:03:11.925Z,0.80
2022-09-12T14:06:18.853Z,0.65
2022-09-12T14:09:28.987Z,0.60
2022-09-12T14:12:40.673Z,0.65
2022-09-12T14:15:45.641Z,0.68
2022-09-12T14:18:49.877Z,0.63
2022-09-12T14:21:54.764Z,0.95
2022-09-12T14:24:58.682Z,0.93
2022-09-12T14:28:01.276Z,0.70
2022-09-12T14:31:06.360Z,0.85
2022-09-12T14:34:10.823Z,0.80
2022-09-12T14:37:16.011Z,0.82
2022-09-12T14:40:21.080Z,1.02
2022-09-12T14:43:26.233Z,0.75
2022-09-12T14:46:32.171Z,0.88
2022-09-12T14:49:36.023Z,1.00
2022-09-12T14:52:40.038Z,0.70
2022-09-12T14:55:44.560Z,1.02
2022-09-12T14:58:47.237Z,0.80
2022-09-12T15:01:49.953Z,0.70
2022-09-12T15:04:53.953Z,0.80
2022-09-12T15:08:03.999Z,0.77
2022-09-12T15:11:07.538Z,0.98
2022-09-12T15:14:13.190Z,0.80
2022-09-12T15:17:15.901Z,0.80
2022-09-12T15:20:21.381Z,0.98
2022-09-12T15:23:30.126Z,0.73
2022-09-12T15:26:34.381Z,0.90
2022-09-12T15:29:36.859Z,0.70
2022-09-12T15:32:39.877Z,0.70
2022-09-12T15:35:42.402Z,0.85
2022-09-12T15:38:47.108Z,0.60
2022-09-12T15:41:50.802Z,1.10
2022-09-12T15:44:54.049Z,0.85
2022-09-12T15:47:56.889Z,0.80
2022-09-12T15:51:01.571Z,0.80
2022-09-12T15:54:05.751Z,0.90
2022-09-12T15:57:08.343Z,0.98
2022-09-12T16:00:11.421Z,1.00
2022-09-12T16:03:22.936Z,0.98
2022-09-12T16:06:25.418Z,1.30
2022-09-12T16:09:29.706Z,1.00
2022-09-12T16:12:32.219Z,1.02
2022-09-12T16:15:35.005Z,1.00
2022-09-12T16:18:39.827Z,0.98
2022-09-12T16:21:42.262Z,0.95
2022-09-12T16:24:46.153Z,0.80
2022-09-12T16:27:48.771Z,0.98
2022-09-12T16:30:56.052Z,0.85
2022-09-12T16:33:58.755Z,1.20
2022-09-12T16:37:10.116Z,1.00
2022-09-12T16:40:15.232Z,0.80
2022-09-12T16:43:17.787Z,0.73
2022-09-12T16:46:21.264Z,0.82
2022-09-12T16:49:23.722Z,1.80
2022-09-12T16:52:26.418Z,1.52
2022-09-12T16:55:32.358Z,1.40
2022-09-12T16:58:41.091Z,1.10
2022-09-12T17:01:44.983Z,0.98
2022-09-12T17:04:47.593Z,0.90
2022-09-12T17:07:50.665Z,1.20
2022-09-12T17:10:54.590Z,1.10
2022-09-12T17:14:05.043Z,0.93
2022-09-12T17:17:08.183Z,0.90
2022-09-12T17:20:26.612Z,1.05
2022-09-12T17:23:33.745Z,1.20
2022-09-12T17:26:37.789Z,3.95
2022-09-12T17:29:41.398Z,2.45
2022-09-12T17:32:43.963Z,1.33
2022-09-12T17:35:54.752Z,1.40
2022-09-12T17:38:57.233Z,2.28
2022-09-12T17:42:01.390Z,2.13
2022-09-12T17:45:18.468Z,1.40
2022-09-12T17:51:38.272Z,1.33
2022-09-12T17:54:40.806Z,1.27
2022-09-12T17:58:29.379Z,1.25
2022-09-12T18:01:51.330Z,1.20
2022-09-12T18:04:59.963Z,1.20
2022-09-12T18:08:02.643Z,1.52
2022-09-12T18:11:05.784Z,1.30
2022-09-12T18:14:10.431Z,1.20
2022-09-12T18:17:18.220Z,1.10
2022-09-12T18:20:20.714Z,1.90
2022-09-12T18:23:23.393Z,6.68
2022-09-12T18:26:26.412Z,5.00
2022-09-12T18:29:29.118Z,3.60
2022-09-12T18:32:33.326Z,1.75
2022-09-12T18:35:38.644Z,1.17
2022-09-12T18:38:41.620Z,1.00
2022-09-12T18:41:44.557Z,1.38
2022-09-12T18:45:15.467Z,1.33
2022-09-12T18:48:19.421Z,1.30
2022-09-12T18:51:22.859Z,1.20
2022-09-12T18:54:25.513Z,1.20
2022-09-12T18:57:30.453Z,1.63
2022-09-12T19:00:32.961Z,1.30
2022-09-12T19:03:36.944Z,1.58
2022-09-12T19:06:40.484Z,1.33
2022-09-12T19:09:43.469Z,1.15
2022-09-12T19:12:46.113Z,1.50
2022-09-12T19:15:48.652Z,1.30
2022-09-12T19:18:52.795Z,1.10
2022-09-12T19:21:55.441Z,1.20
2022-09-12T19:24:57.904Z,1.27
2022-09-12T19:28:00.396Z,1.25
2022-09-12T19:31:05.028Z,1.15
2022-09-12T19:34:09.423Z,1.83
2022-09-12T19:37:11.999Z,1.98
2022-09-12T19:40:20.384Z,1.50
2022-09-12T19:43:23.104Z,1.45
2022-09-12T19:46:28.433Z,1.20
2022-09-12T19:49:41.466Z,1.20
2022-09-12T19:52:43.952Z,1.20
2022-09-12T19:55:47.006Z,1.38
2022-09-12T19:58:55.783Z,1.33
2022-09-12T20:01:58.988Z,1.15
2022-09-12T20:05:03.168Z,1.45
2022-09-12T20:08:39.975Z,1.33
2022-09-12T20:11:42.490Z,1.50
2022-09-12T20:14:45.253Z,1.35
2022-09-12T20:17:47.889Z,1.55
2022-09-12T20:20:51.695Z,1.20
2022-09-12T20:23:54.172Z,1.63
2022-09-12T20:26:57.529Z,1.60
2022-09-12T20:30:00.302Z,1.67
2022-09-12T20:33:03.758Z,1.60
2022-09-12T20:36:09.071Z,1.50
2022-09-12T20:39:13.488Z,1.45
2022-09-12T20:42:15.998Z,1.50
2022-09-12T20:45:30.517Z,1.40
2022-09-12T20:48:33.015Z,1.33
2022-09-12T20:51:36.923Z,1.65
2022-09-12T20:54:39.400Z,1.67
2022-09-12T20:57:41.924Z,1.40
2022-09-12T21:00:44.622Z,1.80
2022-09-12T21:03:48.063Z,1.70
2022-09-12T21:06:52.004Z,1.90
2022-09-12T21:09:54.561Z,1.90
2022-09-12T21:12:57.066Z,1.50
2022-09-12T21:16:47.749Z,1.40
2022-09-12T21:19:50.301Z,1.90
2022-09-12T21:22:54.103Z,1.52
2022-09-12T21:25:56.718Z,1.75
2022-09-12T21:28:59.230Z,1.60
2022-09-12T21:32:01.941Z,1.55
2022-09-12T21:35:05.038Z,1.73
2022-09-12T21:38:09.252Z,1.70
2022-09-12T21:41:58.403Z,1.70
2022-09-12T21:45:00.911Z,1.70
2022-09-12T21:48:04.134Z,1.77
2022-09-12T21:51:09.700Z,2.00
2022-09-12T21:54:13.843Z,1.50
2022-09-12T21:57:16.342Z,1.83
2022-09-12T22:00:18.809Z,1.77
2022-09-12T22:03:22.123Z,1.90
2022-09-12T22:06:24.617Z,1.50
2022-09-12T22:09:28.500Z,1.38
2022-09-12T22:12:31.255Z,1.80
2022-09-12T22:15:40.622Z,1.63
2022-09-12T22:19:12.794Z,1.45
2022-09-12T22:22:32.805Z,1.50
2022-09-12T22:25:36.731Z,1.63
2022-09-12T22:28:39.171Z,1.60
2022-09-12T22:31:41.707Z,1.70
2022-09-12T22:34:44.176Z,1.48
2022-09-12T22:37:47.970Z,1.60
2022-09-12T22:40:51.942Z,1.65
2022-09-12T22:43:54.367Z,1.67
2022-09-12T22:46:59.996Z,1.45
2022-09-12T22:50:02.488Z,1.73
2022-09-12T22:53:05.071Z,2.00
2022-09-12T22:56:09.722Z,1.40
2022-09-12T22:59:12.140Z,1.90
2022-09-12T23:02:14.606Z,1.42
2022-09-12T23:05:17.137Z,1.45
2022-09-12T23:08:19.871Z,1.40
2022-09-12T23:11:24.342Z,1.60
2022-09-12T23:14:26.758Z,1.58
2022-09-12T23:17:29.199Z,1.40
2022-09-12T23:20:31.814Z,1.40
2022-09-12T23:23:34.459Z,1.77
2022-09-12T23:26:38.269Z,1.65
2022-09-12T23:29:40.715Z,1.70
2022-09-12T23:32:43.096Z,1.65
2022-09-12T23:35:45.553Z,1.75
2022-09-12T23:38:48.233Z,1.52
2022-09-12T23:41:52.210Z,1.80
2022-09-12T23:44:54.627Z,2.15
2022-09-12T23:47:57.045Z,1.83
2022-09-12T23:50:59.577Z,1.20
2022-09-12T23:54:01.997Z,1.65
